Seattle Tacoma International Airport
KSEA : rendu visible

Aérodrome :











RETROUVEZ-NOUS SUR...

 
LOGIN :

S'inscrire | Disclaimer

   EN    FR    IT 

 









Légende :    VFR   VFR Marginal   IFR   IFR Intensif   IFR Très Intensif
Visi : 
Plafond : 
>= 8 km
>= 3000ft
5 à 8 km
1000 à 3000 ft
1500m à 5 km
500 à 1000 ft
800 à 1500m
200 à 500 ft
< 800m
< 200 ft
Symboles :   Orages  Brouillard  Fortes neiges  Fortes précipitations  Vent > 20 kt






- Altitude de l'aérodrome : 433 ft
- Code IATA : SEA


KSEA - Seattle Tacoma International

DERNIER METAR :
  • 190653Z 11009KT 10SM BKN050 OVC110 08/01 A3027 RMK AO2 SLP258 T00780011

METARs EXPIRÉS :
  • 190553Z 12011KT 10SM SCT060 SCT110 BKN200 07/02 A3027 RMK AO2 SLP258 T00720017 10106 20072 51011
  • 190453Z 13007KT 10SM SCT045 BKN060 BKN110 08/03 A3026 RMK AO2 SLP255 T00780028

TAF KSEA
Valide du 19 à 06h jusqu'au 20 à 12h UTC


190520Z 1906/2012 13007KT P6SM SCT040 BKN060 BKN120
TEMPO 1910/1914 BKN025 OVC050
FM191700 12006KT P6SM -RA OVC035
FM200000 07006KT P6SM SCT050 BKN150



MET'MAP, la Météo Aéronautique d'un coup d'oeil ! - Copyright ORBIFLY Décembre 2007 - Disclaimer

ORBIFLY MET'MAP TEAM :

Programmation & Développement : Alexandra Zaïnal
Sur une idée originale de : Baudouin d'Aumeries
Assistance à la programmation : Marc-Olivier Méhu
Soutien technique & logistique : Manuel Goepfert

Contact : metmap@orbifly.com




SOURCES & CREDITS :

   NOAA       Earth
Advisory